This is the latest recevied weather packets stored in our database for station/object EA5GTE-12. If no packets are shown the sender has not sent any weather packets the latest 10 day(s).
| Time | Temp. | Humidity | Pressure | Rain* | Wind** | Luminosity | Snow |
|---|---|---|---|---|---|---|---|
| 1788022406 | 30° C | 16% | 939.9 hPa | - | - | - | - |
| 1788021506 | 29.44° C | 17% | 939.9 hPa | - | - | - | - |
| 1788019708 | 36.67° C | 11% | 939.9 hPa | - | - | - | - |
| 1788018809 | 36.11° C | 12% | 940 hPa | - | - | - | - |
| 1788017908 | 36.11° C | 12% | 940.2 hPa | - | - | - | - |
| 1788017008 | 36.11° C | 12% | 940.3 hPa | - | - | - | - |
| 1788016109 | 37.22° C | 11% | 940.4 hPa | - | - | - | - |
| 1788015208 | 36.11° C | 12% | 940.6 hPa | - | - | - | - |
| 1788014308 | 33.33° C | 14% | 940.9 hPa | - | - | - | - |
| 1788013409 | 35.56° C | 13% | 941 hPa | - | - | - | - |
| 1788012509 | 36.67° C | 11% | 941.1 hPa | - | - | - | - |
| 1788011608 | 35.56° C | 12% | 941.3 hPa | - | - | - | - |
| 1788010708 | 35° C | 13% | 941.5 hPa | - | - | - | - |
| 1788009809 | 33.89° C | 13% | 941.8 hPa | - | - | - | - |
| 1788008908 | 35° C | 13% | 942 hPa | - | - | - | - |
| 1788008009 | 36.67° C | 12% | 942 hPa | - | - | - | - |
| 1788007108 | 33.33° C | 14% | 942.2 hPa | - | - | - | - |
| 1788006208 | 33.89° C | 13% | 942.1 hPa | - | - | - | - |
| 1788005308 | 30.56° C | 17% | 942.6 hPa | - | - | - | - |
| 1788004408 | 33.89° C | 15% | 942.4 hPa | - | - | - | - |
| 1788003508 | 33.33° C | 15% | 942.6 hPa | - | - | - | - |
| 1788002608 | 32.78° C | 15% | 942.6 hPa | - | - | - | - |
| 1788001707 | 32.22° C | 15% | 942.9 hPa | - | - | - | - |
| 1788000807 | 32.22° C | 16% | 943 hPa | - | - | - | - |
| 1787999906 | 32.78° C | 17% | 943.1 hPa | - | - | - | - |
* Rain since midnight (hover to see other rain measurements)
** Current wind speed in m/s (hover to see current wind gust speed)